Las Cruces International Airport
KLRU : now visible

Airfield :











YOU CAN JOIN US ON...

 
LOGIN :

Register | Disclaimer

   EN    FR    IT 

 









Legend :    VFR   Marginal VFR   IFR   Intensive IFR   Very Intensive IFR
Visi :
Ceiling :
>= 8 km
>= 3000ft
5 to 8 km
1000 to 3000 ft
1500m to 5 km
500 to 1000 ft
800 to 1500m
200 to 500 ft
< 800m
< 200 ft
Symbols :   Thunderstorms  Fog  Heavy snow  Heavy precipitations  Wind > 20 kt






- Airport Elevation : 4456 ft
- IATA code : LRU


KLRU - Las Cruces International

CURRENT METAR :
  • 121615Z AUTO 12010KT 080V140 10SM CLR 19/06 A3027 RMK AO2 T01870060

EXPIRED METARs :
  • 121555Z AUTO 11004KT 10SM CLR 18/06 A3027 RMK AO2 T01830061
  • 121535Z AUTO 21003KT 10SM CLR 18/06 A3026 RMK AO2 T01750061
  • 121515Z AUTO 10003KT 10SM CLR 17/06 A3027 RMK AO2 T01740055
  • 121455Z AUTO 00000KT 10SM CLR 16/06 A3026 RMK AO2 T01560055
  • 121435Z AUTO 33004KT 10SM CLR 16/05 A3025 RMK AO2 T01560052
  • 121415Z AUTO 30003KT 10SM CLR 15/05 A3025 RMK AO2 T01500052
  • 121355Z AUTO 30005KT 10SM CLR 15/05 A3024 RMK AO2 T01450046
  • 121335Z AUTO 29006KT 10SM CLR 14/05 A3023 RMK AO2 T01370045

TAF KLRU
Valid from the 12 at 13:00 until the 13 at 12:00 UTC


121230Z 1213/1312 11008KT P6SM SKC
FM121800 13010G20KT P6SM SKC
FM130600 14006KT P6SM SKC
KZAB FIR / North America



MET'MAP, your aeronautical weather chart ! - Copyright ORBIFLY December 2007 - Disclaimer

ORBIFLY MET'MAP TEAM :

Programming & Development : Alexandra Zaïnal
Concept & original design : Baudouin d'Aumeries
Assistance for programming : Marc-Olivier Méhu
Technical & hardware support : Manuel Goepfert

Contact : metmap@orbifly.com




SOURCES & CREDITS :

   NOAA       Earth
Advisory